sensor_id;sensor_type;location;lat;lon;timestamp;pressure;altitude;pressure_sealevel;temperature;humidity
28701;BME280;15877;52.344;16.790;2023-05-24T00:00:43;100428.63;;;18.39;80.66
28701;BME280;15877;52.344;16.790;2023-05-24T00:03:29;100426.70;;;18.39;80.53
28701;BME280;15877;52.344;16.790;2023-05-24T00:06:05;100400.67;;;18.21;80.30
28701;BME280;15877;52.344;16.790;2023-05-24T00:08:37;100423.17;;;18.19;80.64
28701;BME280;15877;52.344;16.790;2023-05-24T00:11:10;100427.66;;;18.12;79.67
28701;BME280;15877;52.344;16.790;2023-05-24T00:13:43;100429.88;;;17.97;79.73
28701;BME280;15877;52.344;16.790;2023-05-24T00:16:15;100435.52;;;17.95;79.56
28701;BME280;15877;52.344;16.790;2023-05-24T00:18:48;100436.55;;;17.97;78.51
28701;BME280;15877;52.344;16.790;2023-05-24T00:21:22;100436.27;;;17.91;78.03
28701;BME280;15877;52.344;16.790;2023-05-24T00:23:54;100440.21;;;17.67;77.32
28701;BME280;15877;52.344;16.790;2023-05-24T00:26:26;100444.33;;;17.48;77.37
28701;BME280;15877;52.344;16.790;2023-05-24T00:28:59;100447.35;;;17.38;76.88
28701;BME280;15877;52.344;16.790;2023-05-24T00:31:31;100449.56;;;17.29;77.29
28701;BME280;15877;52.344;16.790;2023-05-24T00:34:05;100449.55;;;17.31;77.01
28701;BME280;15877;52.344;16.790;2023-05-24T00:36:38;100439.89;;;17.03;77.48
28701;BME280;15877;52.344;16.790;2023-05-24T00:39:11;100445.50;;;17.03;77.51
28701;BME280;15877;52.344;16.790;2023-05-24T00:41:46;100446.44;;;16.89;77.83
28701;BME280;15877;52.344;16.790;2023-05-24T00:44:19;100459.98;;;16.91;78.30
28701;BME280;15877;52.344;16.790;2023-05-24T00:46:54;100465.85;;;16.85;78.00
28701;BME280;15877;52.344;16.790;2023-05-24T00:49:27;100458.91;;;16.78;77.71
28701;BME280;15877;52.344;16.790;2023-05-24T00:51:59;100463.30;;;16.80;77.31
28701;BME280;15877;52.344;16.790;2023-05-24T00:54:33;100465.80;;;16.73;77.31
28701;BME280;15877;52.344;16.790;2023-05-24T00:57:05;100459.71;;;16.69;76.86
28701;BME280;15877;52.344;16.790;2023-05-24T00:59:38;100474.41;;;16.57;77.09
28701;BME280;15877;52.344;16.790;2023-05-24T01:02:11;100472.49;;;16.61;76.98
28701;BME280;15877;52.344;16.790;2023-05-24T01:04:44;100474.58;;;16.55;77.17
28701;BME280;15877;52.344;16.790;2023-05-24T01:07:20;100472.48;;;16.64;77.00
28701;BME280;15877;52.344;16.790;2023-05-24T01:10:11;100478.42;;;16.57;77.34
28701;BME280;15877;52.344;16.790;2023-05-24T01:12:58;100485.23;;;16.54;77.09
28701;BME280;15877;52.344;16.790;2023-05-24T01:15:40;100492.45;;;16.60;76.97
28701;BME280;15877;52.344;16.790;2023-05-24T01:18:18;100484.12;;;16.46;77.05
28701;BME280;15877;52.344;16.790;2023-05-24T01:21:07;100503.27;;;16.54;77.09
28701;BME280;15877;52.344;16.790;2023-05-24T01:24:03;100503.19;;;16.55;77.49
28701;BME280;15877;52.344;16.790;2023-05-24T01:29:24;100498.54;;;16.56;77.85
28701;BME280;15877;52.344;16.790;2023-05-24T01:31:57;100498.95;;;16.54;78.17
28701;BME280;15877;52.344;16.790;2023-05-24T01:34:30;100506.27;;;16.74;77.60
28701;BME280;15877;52.344;16.790;2023-05-24T01:37:02;100510.92;;;16.80;76.81
28701;BME280;15877;52.344;16.790;2023-05-24T01:39:35;100499.39;;;16.77;76.78
28701;BME280;15877;52.344;16.790;2023-05-24T01:42:14;100513.41;;;16.81;77.01
28701;BME280;15877;52.344;16.790;2023-05-24T01:44:57;100517.77;;;16.63;77.38
28701;BME280;15877;52.344;16.790;2023-05-24T01:47:41;100518.47;;;16.78;76.91
28701;BME280;15877;52.344;16.790;2023-05-24T01:50:23;100516.46;;;16.73;76.59
28701;BME280;15877;52.344;16.790;2023-05-24T01:52:59;100524.16;;;16.73;76.55
28701;BME280;15877;52.344;16.790;2023-05-24T01:55:34;100516.85;;;16.75;76.49
28701;BME280;15877;52.344;16.790;2023-05-24T01:58:10;100517.02;;;16.72;76.18
28701;BME280;15877;52.344;16.790;2023-05-24T02:00:45;100517.85;;;16.63;76.40
28701;BME280;15877;52.344;16.790;2023-05-24T02:03:18;100519.04;;;16.70;76.58
28701;BME280;15877;52.344;16.790;2023-05-24T02:05:51;100507.66;;;16.60;76.31
28701;BME280;15877;52.344;16.790;2023-05-24T02:08:23;100521.21;;;16.58;76.77
28701;BME280;15877;52.344;16.790;2023-05-24T02:10:55;100522.48;;;16.64;76.57
28701;BME280;15877;52.344;16.790;2023-05-24T02:13:28;100521.12;;;16.68;77.00
28701;BME280;15877;52.344;16.790;2023-05-24T02:16:00;100523.68;;;16.69;77.09
28701;BME280;15877;52.344;16.790;2023-05-24T02:18:35;100522.63;;;16.70;77.11
28701;BME280;15877;52.344;16.790;2023-05-24T02:21:07;100530.98;;;16.77;76.82
28701;BME280;15877;52.344;16.790;2023-05-24T02:23:40;100527.61;;;16.70;76.96
28701;BME280;15877;52.344;16.790;2023-05-24T02:26:13;100532.74;;;16.69;77.08
28701;BME280;15877;52.344;16.790;2023-05-24T02:28:48;100533.45;;;16.74;76.77
28701;BME280;15877;52.344;16.790;2023-05-24T02:31:20;100532.10;;;16.60;77.13
28701;BME280;15877;52.344;16.790;2023-05-24T02:33:53;100545.89;;;16.65;77.16
28701;BME280;15877;52.344;16.790;2023-05-24T02:36:25;100545.33;;;16.60;77.27
28701;BME280;15877;52.344;16.790;2023-05-24T02:38:58;100546.36;;;16.61;77.55
28701;BME280;15877;52.344;16.790;2023-05-24T02:41:31;100546.27;;;16.48;77.79
28701;BME280;15877;52.344;16.790;2023-05-24T02:44:03;100547.02;;;16.53;77.37
28701;BME280;15877;52.344;16.790;2023-05-24T02:46:35;100541.23;;;16.44;77.52
28701;BME280;15877;52.344;16.790;2023-05-24T02:49:08;100553.10;;;16.47;77.01
28701;BME280;15877;52.344;16.790;2023-05-24T02:51:41;100554.52;;;16.36;77.74
28701;BME280;15877;52.344;16.790;2023-05-24T02:54:14;100558.36;;;16.28;77.88
28701;BME280;15877;52.344;16.790;2023-05-24T02:56:49;100560.05;;;16.37;77.03
28701;BME280;15877;52.344;16.790;2023-05-24T02:59:22;100562.29;;;16.26;76.36
28701;BME280;15877;52.344;16.790;2023-05-24T03:01:55;100566.40;;;16.00;76.97
28701;BME280;15877;52.344;16.790;2023-05-24T03:04:30;100574.92;;;15.81;77.26
28701;BME280;15877;52.344;16.790;2023-05-24T03:07:03;100575.47;;;15.75;77.28
28701;BME280;15877;52.344;16.790;2023-05-24T03:09:36;100586.10;;;15.70;77.64
28701;BME280;15877;52.344;16.790;2023-05-24T03:12:09;100592.65;;;15.70;77.06
28701;BME280;15877;52.344;16.790;2023-05-24T03:14:41;100595.79;;;15.73;76.36
28701;BME280;15877;52.344;16.790;2023-05-24T03:17:14;100596.85;;;15.43;76.77
28701;BME280;15877;52.344;16.790;2023-05-24T03:19:47;100596.74;;;15.38;77.27
28701;BME280;15877;52.344;16.790;2023-05-24T03:22:20;100599.43;;;15.45;76.63
28701;BME280;15877;52.344;16.790;2023-05-24T03:24:53;100603.33;;;15.43;76.04
28701;BME280;15877;52.344;16.790;2023-05-24T03:27:26;100601.67;;;15.48;76.00
28701;BME280;15877;52.344;16.790;2023-05-24T03:29:58;100612.01;;;15.49;75.36
28701;BME280;15877;52.344;16.790;2023-05-24T03:32:31;100614.24;;;15.37;75.56
28701;BME280;15877;52.344;16.790;2023-05-24T03:35:04;100616.12;;;15.32;75.48
28701;BME280;15877;52.344;16.790;2023-05-24T03:37:37;100611.27;;;15.22;75.94
28701;BME280;15877;52.344;16.790;2023-05-24T03:40:12;100613.12;;;15.11;76.41
28701;BME280;15877;52.344;16.790;2023-05-24T03:42:57;100611.94;;;15.03;76.54
28701;BME280;15877;52.344;16.790;2023-05-24T03:45:51;100621.02;;;14.86;77.14
28701;BME280;15877;52.344;16.790;2023-05-24T03:48:23;100623.80;;;14.74;77.50
28701;BME280;15877;52.344;16.790;2023-05-24T03:50:56;100618.96;;;14.59;78.06
28701;BME280;15877;52.344;16.790;2023-05-24T03:53:29;100615.39;;;14.63;77.64
28701;BME280;15877;52.344;16.790;2023-05-24T03:56:06;100629.77;;;14.62;77.72
28701;BME280;15877;52.344;16.790;2023-05-24T03:58:38;100630.67;;;14.56;77.76
28701;BME280;15877;52.344;16.790;2023-05-24T04:01:10;100626.54;;;14.49;77.94
28701;BME280;15877;52.344;16.790;2023-05-24T04:04:03;100631.15;;;14.46;78.09
28701;BME280;15877;52.344;16.790;2023-05-24T04:06:36;100629.05;;;14.53;77.74
28701;BME280;15877;52.344;16.790;2023-05-24T04:09:08;100630.96;;;14.43;77.80
28701;BME280;15877;52.344;16.790;2023-05-24T04:11:40;100637.92;;;14.29;78.53
28701;BME280;15877;52.344;16.790;2023-05-24T04:14:14;100628.19;;;14.16;79.11
28701;BME280;15877;52.344;16.790;2023-05-24T04:16:47;100646.84;;;14.20;79.29
28701;BME280;15877;52.344;16.790;2023-05-24T04:19:22;100647.36;;;14.11;80.03
28701;BME280;15877;52.344;16.790;2023-05-24T04:21:55;100650.71;;;14.18;79.81
28701;BME280;15877;52.344;16.790;2023-05-24T04:24:28;100641.55;;;14.32;79.21
28701;BME280;15877;52.344;16.790;2023-05-24T04:27:00;100645.84;;;14.30;79.49
28701;BME280;15877;52.344;16.790;2023-05-24T04:29:33;100639.80;;;14.25;79.66
28701;BME280;15877;52.344;16.790;2023-05-24T04:32:06;100645.77;;;14.25;79.99
28701;BME280;15877;52.344;16.790;2023-05-24T04:34:39;100647.73;;;14.35;79.96
28701;BME280;15877;52.344;16.790;2023-05-24T04:37:13;100651.70;;;14.14;80.22
28701;BME280;15877;52.344;16.790;2023-05-24T04:39:49;100643.78;;;14.12;80.23
28701;BME280;15877;52.344;16.790;2023-05-24T04:42:21;100651.30;;;14.06;80.53
28701;BME280;15877;52.344;16.790;2023-05-24T04:44:53;100652.79;;;14.19;80.20
28701;BME280;15877;52.344;16.790;2023-05-24T04:47:26;100657.16;;;14.16;80.27
28701;BME280;15877;52.344;16.790;2023-05-24T04:49:59;100653.87;;;14.15;79.86
28701;BME280;15877;52.344;16.790;2023-05-24T04:52:32;100663.30;;;14.22;79.70
28701;BME280;15877;52.344;16.790;2023-05-24T04:55:07;100663.46;;;14.22;79.46
28701;BME280;15877;52.344;16.790;2023-05-24T04:57:40;100667.26;;;14.13;79.81
28701;BME280;15877;52.344;16.790;2023-05-24T05:00:14;100668.68;;;14.25;79.15
28701;BME280;15877;52.344;16.790;2023-05-24T05:02:47;100672.09;;;14.17;79.45
28701;BME280;15877;52.344;16.790;2023-05-24T05:05:20;100674.96;;;14.23;78.67
28701;BME280;15877;52.344;16.790;2023-05-24T05:07:52;100680.27;;;14.33;78.03
28701;BME280;15877;52.344;16.790;2023-05-24T05:10:24;100672.30;;;14.20;77.74
28701;BME280;15877;52.344;16.790;2023-05-24T05:12:57;100687.02;;;14.35;77.31
28701;BME280;15877;52.344;16.790;2023-05-24T05:15:29;100686.17;;;14.45;76.62
28701;BME280;15877;52.344;16.790;2023-05-24T05:18:02;100683.42;;;14.49;76.11
28701;BME280;15877;52.344;16.790;2023-05-24T05:20:34;100691.02;;;14.42;75.83
28701;BME280;15877;52.344;16.790;2023-05-24T05:23:08;100700.77;;;14.37;76.13
28701;BME280;15877;52.344;16.790;2023-05-24T05:25:40;100704.52;;;14.36;75.90
28701;BME280;15877;52.344;16.790;2023-05-24T05:28:13;100705.33;;;14.44;75.36
28701;BME280;15877;52.344;16.790;2023-05-24T05:30:46;100704.09;;;14.47;75.66
28701;BME280;15877;52.344;16.790;2023-05-24T05:33:18;100708.64;;;14.56;75.56
28701;BME280;15877;52.344;16.790;2023-05-24T05:35:51;100714.64;;;14.57;75.01
28701;BME280;15877;52.344;16.790;2023-05-24T05:38:25;100711.96;;;14.37;75.26
28701;BME280;15877;52.344;16.790;2023-05-24T05:40:57;100718.95;;;14.48;75.50
28701;BME280;15877;52.344;16.790;2023-05-24T05:43:31;100722.61;;;14.55;75.13
28701;BME280;15877;52.344;16.790;2023-05-24T05:46:03;100725.36;;;14.51;75.22
28701;BME280;15877;52.344;16.790;2023-05-24T05:48:36;100731.83;;;14.58;74.67
28701;BME280;15877;52.344;16.790;2023-05-24T05:51:08;100732.52;;;14.34;75.43
28701;BME280;15877;52.344;16.790;2023-05-24T05:53:41;100724.19;;;14.54;75.43
28701;BME280;15877;52.344;16.790;2023-05-24T05:56:14;100727.94;;;14.67;75.04
28701;BME280;15877;52.344;16.790;2023-05-24T05:58:47;100732.98;;;14.61;75.69
28701;BME280;15877;52.344;16.790;2023-05-24T06:01:20;100738.81;;;14.68;75.08
28701;BME280;15877;52.344;16.790;2023-05-24T06:03:52;100745.09;;;14.74;74.51
28701;BME280;15877;52.344;16.790;2023-05-24T06:06:25;100746.82;;;14.62;74.52
28701;BME280;15877;52.344;16.790;2023-05-24T06:08:57;100736.77;;;14.50;74.99
28701;BME280;15877;52.344;16.790;2023-05-24T06:11:30;100756.30;;;14.60;74.83
28701;BME280;15877;52.344;16.790;2023-05-24T06:14:02;100762.55;;;14.55;74.93
28701;BME280;15877;52.344;16.790;2023-05-24T06:16:35;100767.93;;;14.72;74.65
28701;BME280;15877;52.344;16.790;2023-05-24T06:19:12;100768.98;;;14.81;74.65
28701;BME280;15877;52.344;16.790;2023-05-24T06:21:45;100766.07;;;14.85;74.28
28701;BME280;15877;52.344;16.790;2023-05-24T06:24:19;100773.37;;;14.88;74.01
28701;BME280;15877;52.344;16.790;2023-05-24T06:26:52;100769.81;;;14.92;74.04
28701;BME280;15877;52.344;16.790;2023-05-24T06:29:24;100759.89;;;14.90;74.08
28701;BME280;15877;52.344;16.790;2023-05-24T06:31:56;100776.47;;;14.94;74.10
28701;BME280;15877;52.344;16.790;2023-05-24T06:34:29;100786.61;;;14.93;73.86
28701;BME280;15877;52.344;16.790;2023-05-24T06:37:02;100787.30;;;14.84;73.54
28701;BME280;15877;52.344;16.790;2023-05-24T06:39:34;100790.77;;;14.94;73.19
28701;BME280;15877;52.344;16.790;2023-05-24T06:42:07;100795.31;;;14.92;73.58
28701;BME280;15877;52.344;16.790;2023-05-24T06:44:40;100806.10;;;15.00;73.17
28701;BME280;15877;52.344;16.790;2023-05-24T06:47:12;100809.08;;;14.94;73.06
28701;BME280;15877;52.344;16.790;2023-05-24T06:49:45;100808.92;;;14.94;73.04
28701;BME280;15877;52.344;16.790;2023-05-24T06:52:17;100815.46;;;14.93;73.43
28701;BME280;15877;52.344;16.790;2023-05-24T06:54:51;100809.48;;;14.95;72.72
28701;BME280;15877;52.344;16.790;2023-05-24T06:57:23;100822.01;;;15.00;72.61
28701;BME280;15877;52.344;16.790;2023-05-24T06:59:56;100821.33;;;15.03;72.47
28701;BME280;15877;52.344;16.790;2023-05-24T07:02:28;100819.87;;;15.10;72.46
28701;BME280;15877;52.344;16.790;2023-05-24T07:05:01;100821.30;;;15.09;72.73
28701;BME280;15877;52.344;16.790;2023-05-24T07:07:35;100804.20;;;14.78;73.16
28701;BME280;15877;52.344;16.790;2023-05-24T07:10:10;100820.72;;;14.91;73.59
28701;BME280;15877;52.344;16.790;2023-05-24T07:12:42;100817.82;;;15.04;73.26
28701;BME280;15877;52.344;16.790;2023-05-24T07:15:15;100817.48;;;15.02;73.13
28701;BME280;15877;52.344;16.790;2023-05-24T07:17:47;100819.83;;;15.06;73.10
28701;BME280;15877;52.344;16.790;2023-05-24T07:20:20;100823.00;;;15.03;72.72
28701;BME280;15877;52.344;16.790;2023-05-24T07:22:52;100821.77;;;15.08;72.90
28701;BME280;15877;52.344;16.790;2023-05-24T07:25:25;100823.05;;;15.16;72.25
28701;BME280;15877;52.344;16.790;2023-05-24T07:27:57;100827.16;;;14.96;72.92
28701;BME280;15877;52.344;16.790;2023-05-24T07:30:30;100830.83;;;14.95;73.19
28701;BME280;15877;52.344;16.790;2023-05-24T07:33:02;100839.02;;;14.97;72.79
28701;BME280;15877;52.344;16.790;2023-05-24T07:35:35;100836.51;;;14.88;73.05
28701;BME280;15877;52.344;16.790;2023-05-24T07:38:08;100846.83;;;14.88;73.07
28701;BME280;15877;52.344;16.790;2023-05-24T07:40:41;100831.07;;;14.79;72.91
28701;BME280;15877;52.344;16.790;2023-05-24T07:43:14;100847.83;;;14.92;72.79
28701;BME280;15877;52.344;16.790;2023-05-24T07:45:46;100853.81;;;15.06;72.57
28701;BME280;15877;52.344;16.790;2023-05-24T07:48:19;100854.10;;;15.02;72.73
28701;BME280;15877;52.344;16.790;2023-05-24T07:50:52;100855.30;;;14.95;72.89
28701;BME280;15877;52.344;16.790;2023-05-24T07:53:24;100849.11;;;14.78;73.02
28701;BME280;15877;52.344;16.790;2023-05-24T07:55:57;100861.51;;;14.93;73.06
28701;BME280;15877;52.344;16.790;2023-05-24T07:58:30;100862.11;;;14.97;72.68
28701;BME280;15877;52.344;16.790;2023-05-24T08:01:02;100850.69;;;14.82;73.04
28701;BME280;15877;52.344;16.790;2023-05-24T08:03:36;100872.08;;;14.95;72.85
28701;BME280;15877;52.344;16.790;2023-05-24T08:06:10;100877.50;;;14.81;73.29
28701;BME280;15877;52.344;16.790;2023-05-24T08:08:42;100881.89;;;14.79;73.95
28701;BME280;15877;52.344;16.790;2023-05-24T08:11:16;100879.44;;;14.69;74.20
28701;BME280;15877;52.344;16.790;2023-05-24T08:13:48;100885.55;;;14.72;74.17
28701;BME280;15877;52.344;16.790;2023-05-24T08:16:20;100882.08;;;14.96;73.55
28701;BME280;15877;52.344;16.790;2023-05-24T08:18:53;100889.39;;;14.98;72.86
28701;BME280;15877;52.344;16.790;2023-05-24T08:21:25;100888.96;;;14.91;73.27
28701;BME280;15877;52.344;16.790;2023-05-24T08:23:58;100890.65;;;14.97;72.84
28701;BME280;15877;52.344;16.790;2023-05-24T08:26:32;100897.21;;;14.98;72.66
28701;BME280;15877;52.344;16.790;2023-05-24T08:29:04;100896.52;;;14.93;72.91
28701;BME280;15877;52.344;16.790;2023-05-24T08:31:36;100897.81;;;15.01;72.88
28701;BME280;15877;52.344;16.790;2023-05-24T08:34:09;100896.75;;;14.92;73.60
28701;BME280;15877;52.344;16.790;2023-05-24T08:36:42;100900.70;;;15.02;73.32
28701;BME280;15877;52.344;16.790;2023-05-24T08:39:15;100903.77;;;15.11;72.59
28701;BME280;15877;52.344;16.790;2023-05-24T08:41:48;100907.47;;;15.14;72.58
28701;BME280;15877;52.344;16.790;2023-05-24T08:44:44;100907.27;;;15.18;72.40
28701;BME280;15877;52.344;16.790;2023-05-24T08:47:20;100916.37;;;15.17;72.16
28701;BME280;15877;52.344;16.790;2023-05-24T08:49:51;100920.11;;;15.07;72.53
28701;BME280;15877;52.344;16.790;2023-05-24T08:52:24;100924.94;;;15.11;72.80
28701;BME280;15877;52.344;16.790;2023-05-24T08:55:00;100930.49;;;15.14;72.70
28701;BME280;15877;52.344;16.790;2023-05-24T08:57:33;100932.31;;;15.05;72.84
28701;BME280;15877;52.344;16.790;2023-05-24T09:00:11;100940.97;;;15.00;72.96
28701;BME280;15877;52.344;16.790;2023-05-24T09:02:42;100941.74;;;15.05;72.88
28701;BME280;15877;52.344;16.790;2023-05-24T09:05:17;100931.39;;;14.87;73.02
28701;BME280;15877;52.344;16.790;2023-05-24T09:07:50;100945.98;;;14.99;73.11
28701;BME280;15877;52.344;16.790;2023-05-24T09:10:24;100951.29;;;15.01;73.09
28701;BME280;15877;52.344;16.790;2023-05-24T09:13:07;100954.59;;;14.83;73.73
28701;BME280;15877;52.344;16.790;2023-05-24T09:15:41;100951.85;;;14.88;73.96
28701;BME280;15877;52.344;16.790;2023-05-24T09:18:14;100952.90;;;14.95;73.57
28701;BME280;15877;52.344;16.790;2023-05-24T09:20:46;100956.30;;;14.93;73.57
28701;BME280;15877;52.344;16.790;2023-05-24T09:23:19;100955.67;;;14.92;73.63
28701;BME280;15877;52.344;16.790;2023-05-24T09:25:51;100951.20;;;14.75;73.99
28701;BME280;15877;52.344;16.790;2023-05-24T09:28:24;100963.36;;;14.94;73.99
28701;BME280;15877;52.344;16.790;2023-05-24T09:31:00;100969.25;;;15.05;73.51
28701;BME280;15877;52.344;16.790;2023-05-24T09:33:38;100971.64;;;15.10;73.40
28701;BME280;15877;52.344;16.790;2023-05-24T09:36:11;100974.90;;;15.03;73.42
28701;BME280;15877;52.344;16.790;2023-05-24T09:38:48;100959.60;;;14.87;73.17
28701;BME280;15877;52.344;16.790;2023-05-24T09:41:21;100962.10;;;14.88;73.45
28701;BME280;15877;52.344;16.790;2023-05-24T09:43:54;100976.40;;;14.94;73.58
28701;BME280;15877;52.344;16.790;2023-05-24T09:46:26;100957.70;;;14.96;73.48
28701;BME280;15877;52.344;16.790;2023-05-24T09:49:00;100977.59;;;15.01;73.67
28701;BME280;15877;52.344;16.790;2023-05-24T09:51:35;100984.74;;;15.03;73.77
28701;BME280;15877;52.344;16.790;2023-05-24T09:54:08;100985.83;;;15.07;73.47
28701;BME280;15877;52.344;16.790;2023-05-24T09:56:41;100994.69;;;14.94;73.16
28701;BME280;15877;52.344;16.790;2023-05-24T09:59:14;100991.84;;;14.78;73.95
28701;BME280;15877;52.344;16.790;2023-05-24T10:01:46;100993.44;;;14.96;73.42
28701;BME280;15877;52.344;16.790;2023-05-24T10:04:32;100992.41;;;15.03;73.10
28701;BME280;15877;52.344;16.790;2023-05-24T10:07:06;100997.83;;;14.95;73.62
28701;BME280;15877;52.344;16.790;2023-05-24T10:09:39;101005.29;;;14.79;73.98
28701;BME280;15877;52.344;16.790;2023-05-24T10:12:14;101003.85;;;14.86;73.87
28701;BME280;15877;52.344;16.790;2023-05-24T10:14:47;101005.57;;;14.83;74.16
28701;BME280;15877;52.344;16.790;2023-05-24T10:17:20;101007.19;;;14.95;74.01
28701;BME280;15877;52.344;16.790;2023-05-24T10:19:52;100992.70;;;14.83;74.05
28701;BME280;15877;52.344;16.790;2023-05-24T10:22:25;101010.44;;;14.94;74.05
28701;BME280;15877;52.344;16.790;2023-05-24T10:24:59;101012.36;;;15.00;73.87
28701;BME280;15877;52.344;16.790;2023-05-24T10:27:32;101011.30;;;14.98;73.69
28701;BME280;15877;52.344;16.790;2023-05-24T10:30:10;101009.92;;;15.03;73.97
28701;BME280;15877;52.344;16.790;2023-05-24T10:32:47;101011.20;;;15.09;73.67
28701;BME280;15877;52.344;16.790;2023-05-24T10:35:20;101007.86;;;15.17;73.32
28701;BME280;15877;52.344;16.790;2023-05-24T10:37:53;101012.08;;;15.15;73.48
28701;BME280;15877;52.344;16.790;2023-05-24T10:40:27;101016.51;;;15.11;73.49
28701;BME280;15877;52.344;16.790;2023-05-24T10:43:00;101020.30;;;15.20;73.39
28701;BME280;15877;52.344;16.790;2023-05-24T10:45:38;101020.71;;;15.27;73.38
28701;BME280;15877;52.344;16.790;2023-05-24T10:48:40;101020.48;;;15.10;73.99
28701;BME280;15877;52.344;16.790;2023-05-24T10:51:32;101029.20;;;15.15;73.55
28701;BME280;15877;52.344;16.790;2023-05-24T10:54:13;101027.63;;;15.11;74.01
28701;BME280;15877;52.344;16.790;2023-05-24T10:56:48;101034.50;;;15.18;73.31
28701;BME280;15877;52.344;16.790;2023-05-24T10:59:27;101027.74;;;14.97;74.07
28701;BME280;15877;52.344;16.790;2023-05-24T11:02:00;101028.87;;;15.09;74.07
28701;BME280;15877;52.344;16.790;2023-05-24T11:04:37;101029.18;;;15.08;74.00
28701;BME280;15877;52.344;16.790;2023-05-24T11:07:14;101033.75;;;15.16;73.75
28701;BME280;15877;52.344;16.790;2023-05-24T11:09:49;101029.48;;;15.07;74.17
28701;BME280;15877;52.344;16.790;2023-05-24T11:12:30;101014.88;;;15.21;73.64
28701;BME280;15877;52.344;16.790;2023-05-24T11:15:10;101022.21;;;15.20;73.99
28701;BME280;15877;52.344;16.790;2023-05-24T11:18:14;101013.17;;;15.33;73.88
28701;BME280;15877;52.344;16.790;2023-05-24T11:20:48;101011.25;;;15.57;73.57
28701;BME280;15877;52.344;16.790;2023-05-24T11:23:20;101013.59;;;15.52;73.31
28701;BME280;15877;52.344;16.790;2023-05-24T11:25:53;101015.14;;;15.54;73.25
28701;BME280;15877;52.344;16.790;2023-05-24T11:28:25;101019.31;;;15.62;72.62
28701;BME280;15877;52.344;16.790;2023-05-24T11:31:08;101022.58;;;15.55;72.86
28701;BME280;15877;52.344;16.790;2023-05-24T11:33:42;101026.55;;;15.51;73.03
28701;BME280;15877;52.344;16.790;2023-05-24T11:36:15;101002.71;;;15.32;72.83
28701;BME280;15877;52.344;16.790;2023-05-24T11:38:49;101029.73;;;15.58;73.25
28701;BME280;15877;52.344;16.790;2023-05-24T11:41:21;101025.46;;;15.55;73.01
28701;BME280;15877;52.344;16.790;2023-05-24T11:43:53;101024.23;;;15.51;72.91
28701;BME280;15877;52.344;16.790;2023-05-24T11:46:26;101024.06;;;15.51;72.63
28701;BME280;15877;52.344;16.790;2023-05-24T11:49:00;101021.96;;;15.69;72.11
28701;BME280;15877;52.344;16.790;2023-05-24T11:51:34;101015.90;;;15.45;72.41
28701;BME280;15877;52.344;16.790;2023-05-24T11:54:07;101023.86;;;15.54;72.54
28701;BME280;15877;52.344;16.790;2023-05-24T11:56:41;101020.48;;;15.47;72.95
28701;BME280;15877;52.344;16.790;2023-05-24T11:59:18;101023.30;;;15.54;73.39
28701;BME280;15877;52.344;16.790;2023-05-24T12:01:57;101025.44;;;15.52;73.18
28701;BME280;15877;52.344;16.790;2023-05-24T12:04:32;101022.01;;;15.54;73.25
28701;BME280;15877;52.344;16.790;2023-05-24T12:07:10;101030.33;;;15.67;72.76
28701;BME280;15877;52.344;16.790;2023-05-24T12:09:43;101032.98;;;15.69;72.51
28701;BME280;15877;52.344;16.790;2023-05-24T12:12:16;101027.67;;;15.73;71.87
28701;BME280;15877;52.344;16.790;2023-05-24T12:14:55;101025.09;;;15.71;72.38
28701;BME280;15877;52.344;16.790;2023-05-24T12:17:28;101029.05;;;15.61;72.74
28701;BME280;15877;52.344;16.790;2023-05-24T12:20:03;101028.63;;;15.59;72.81
28701;BME280;15877;52.344;16.790;2023-05-24T12:22:36;101031.33;;;15.63;72.78
28701;BME280;15877;52.344;16.790;2023-05-24T12:25:15;101029.58;;;15.64;72.86
28701;BME280;15877;52.344;16.790;2023-05-24T12:27:53;101039.83;;;15.72;72.75
28701;BME280;15877;52.344;16.790;2023-05-24T12:30:28;101047.05;;;15.68;72.69
28701;BME280;15877;52.344;16.790;2023-05-24T12:33:00;101043.45;;;15.60;72.84
28701;BME280;15877;52.344;16.790;2023-05-24T12:35:33;101038.48;;;15.67;72.51
28701;BME280;15877;52.344;16.790;2023-05-24T12:38:09;101041.09;;;15.70;72.17
28701;BME280;15877;52.344;16.790;2023-05-24T12:40:42;101042.66;;;15.68;72.41
28701;BME280;15877;52.344;16.790;2023-05-24T12:43:21;101045.37;;;15.60;73.25
28701;BME280;15877;52.344;16.790;2023-05-24T12:45:53;101044.08;;;15.65;73.09
28701;BME280;15877;52.344;16.790;2023-05-24T12:48:25;101049.26;;;15.71;72.80
28701;BME280;15877;52.344;16.790;2023-05-24T12:50:58;101044.89;;;15.67;72.36
28701;BME280;15877;52.344;16.790;2023-05-24T12:53:30;101044.97;;;15.67;72.63
28701;BME280;15877;52.344;16.790;2023-05-24T12:56:03;101042.07;;;15.66;72.69
28701;BME280;15877;52.344;16.790;2023-05-24T12:58:35;101039.54;;;15.60;72.85
28701;BME280;15877;52.344;16.790;2023-05-24T13:01:07;101039.38;;;15.69;72.63
28701;BME280;15877;52.344;16.790;2023-05-24T13:03:40;101044.81;;;15.67;72.60
28701;BME280;15877;52.344;16.790;2023-05-24T13:06:13;101047.77;;;15.60;73.36
28701;BME280;15877;52.344;16.790;2023-05-24T13:08:45;101046.66;;;15.68;72.95
28701;BME280;15877;52.344;16.790;2023-05-24T13:11:18;101047.37;;;15.67;73.05
28701;BME280;15877;52.344;16.790;2023-05-24T13:13:50;101046.40;;;15.58;73.38
28701;BME280;15877;52.344;16.790;2023-05-24T13:16:23;101044.13;;;15.55;73.27
28701;BME280;15877;52.344;16.790;2023-05-24T13:18:56;101046.82;;;15.60;72.98